sensor_id;sensor_type;location;lat;lon;timestamp;P1;durP1;ratioP1;P2;durP2;ratioP2
61397;SDS011;47267;48.130;-2.040;2023-06-26T00:01:16;7.28;;;1.77;;
61397;SDS011;47267;48.130;-2.040;2023-06-26T00:03:45;5.93;;;1.58;;
61397;SDS011;47267;48.130;-2.040;2023-06-26T00:06:11;5.75;;;1.38;;
61397;SDS011;47267;48.130;-2.040;2023-06-26T00:08:37;4.85;;;1.35;;
61397;SDS011;47267;48.130;-2.040;2023-06-26T00:11:03;5.13;;;1.55;;
61397;SDS011;47267;48.130;-2.040;2023-06-26T00:13:28;3.25;;;0.98;;
61397;SDS011;47267;48.130;-2.040;2023-06-26T00:15:54;5.28;;;1.35;;
61397;SDS011;47267;48.130;-2.040;2023-06-26T00:18:20;6.82;;;1.42;;
61397;SDS011;47267;48.130;-2.040;2023-06-26T00:20:46;5.15;;;1.17;;
61397;SDS011;47267;48.130;-2.040;2023-06-26T00:23:12;6.75;;;1.15;;
61397;SDS011;47267;48.130;-2.040;2023-06-26T00:25:41;6.05;;;1.30;;
61397;SDS011;47267;48.130;-2.040;2023-06-26T00:28:07;3.83;;;1.15;;
61397;SDS011;47267;48.130;-2.040;2023-06-26T00:30:33;4.85;;;1.13;;
61397;SDS011;47267;48.130;-2.040;2023-06-26T00:32:59;5.65;;;1.30;;
61397;SDS011;47267;48.130;-2.040;2023-06-26T00:35:24;5.47;;;1.45;;
61397;SDS011;47267;48.130;-2.040;2023-06-26T00:37:50;4.38;;;1.20;;
61397;SDS011;47267;48.130;-2.040;2023-06-26T00:40:16;4.50;;;1.10;;
61397;SDS011;47267;48.130;-2.040;2023-06-26T00:42:41;5.05;;;1.38;;
61397;SDS011;47267;48.130;-2.040;2023-06-26T00:45:07;4.55;;;1.15;;
61397;SDS011;47267;48.130;-2.040;2023-06-26T00:47:33;6.65;;;1.20;;
61397;SDS011;47267;48.130;-2.040;2023-06-26T00:49:59;6.90;;;1.33;;
61397;SDS011;47267;48.130;-2.040;2023-06-26T00:52:25;4.70;;;1.23;;
61397;SDS011;47267;48.130;-2.040;2023-06-26T00:54:51;4.22;;;1.02;;
61397;SDS011;47267;48.130;-2.040;2023-06-26T00:57:17;5.50;;;1.30;;
61397;SDS011;47267;48.130;-2.040;2023-06-26T00:59:43;5.28;;;1.35;;
61397;SDS011;47267;48.130;-2.040;2023-06-26T01:02:09;5.75;;;1.42;;
61397;SDS011;47267;48.130;-2.040;2023-06-26T01:04:35;5.07;;;1.17;;
61397;SDS011;47267;48.130;-2.040;2023-06-26T01:07:01;4.93;;;1.30;;
61397;SDS011;47267;48.130;-2.040;2023-06-26T01:09:28;6.07;;;1.38;;
61397;SDS011;47267;48.130;-2.040;2023-06-26T01:11:56;5.13;;;1.30;;
61397;SDS011;47267;48.130;-2.040;2023-06-26T01:14:21;5.25;;;1.40;;
61397;SDS011;47267;48.130;-2.040;2023-06-26T01:16:48;5.10;;;1.15;;
61397;SDS011;47267;48.130;-2.040;2023-06-26T01:19:24;3.83;;;1.10;;
61397;SDS011;47267;48.130;-2.040;2023-06-26T01:25:20;3.33;;;0.80;;
61397;SDS011;47267;48.130;-2.040;2023-06-26T01:27:54;4.13;;;1.08;;
61397;SDS011;47267;48.130;-2.040;2023-06-26T01:30:21;3.75;;;1.00;;
61397;SDS011;47267;48.130;-2.040;2023-06-26T01:32:48;6.43;;;1.27;;
61397;SDS011;47267;48.130;-2.040;2023-06-26T01:35:15;3.90;;;1.30;;
61397;SDS011;47267;48.130;-2.040;2023-06-26T01:37:41;5.43;;;1.10;;
61397;SDS011;47267;48.130;-2.040;2023-06-26T01:40:07;3.80;;;1.33;;
61397;SDS011;47267;48.130;-2.040;2023-06-26T01:42:34;4.18;;;1.10;;
61397;SDS011;47267;48.130;-2.040;2023-06-26T01:45:46;4.28;;;0.90;;
61397;SDS011;47267;48.130;-2.040;2023-06-26T01:47:52;3.65;;;1.00;;
61397;SDS011;47267;48.130;-2.040;2023-06-26T01:50:21;4.03;;;1.27;;
61397;SDS011;47267;48.130;-2.040;2023-06-26T01:53:24;2.33;;;0.90;;
61397;SDS011;47267;48.130;-2.040;2023-06-26T01:55:58;6.70;;;1.30;;
61397;SDS011;47267;48.130;-2.040;2023-06-26T01:58:28;4.18;;;1.13;;
61397;SDS011;47267;48.130;-2.040;2023-06-26T02:00:55;4.03;;;1.05;;
61397;SDS011;47267;48.130;-2.040;2023-06-26T02:03:20;3.47;;;1.05;;
61397;SDS011;47267;48.130;-2.040;2023-06-26T02:05:49;4.60;;;1.05;;
61397;SDS011;47267;48.130;-2.040;2023-06-26T02:08:15;4.32;;;1.20;;
61397;SDS011;47267;48.130;-2.040;2023-06-26T02:10:41;4.88;;;1.30;;
61397;SDS011;47267;48.130;-2.040;2023-06-26T02:13:07;5.07;;;1.40;;
61397;SDS011;47267;48.130;-2.040;2023-06-26T02:15:33;3.63;;;1.30;;
61397;SDS011;47267;48.130;-2.040;2023-06-26T02:17:58;3.25;;;0.93;;
61397;SDS011;47267;48.130;-2.040;2023-06-26T02:20:24;2.92;;;0.98;;
61397;SDS011;47267;48.130;-2.040;2023-06-26T02:22:50;4.63;;;1.20;;
61397;SDS011;47267;48.130;-2.040;2023-06-26T02:25:15;3.35;;;1.08;;
61397;SDS011;47267;48.130;-2.040;2023-06-26T02:27:42;4.38;;;1.00;;
61397;SDS011;47267;48.130;-2.040;2023-06-26T02:30:08;3.80;;;1.20;;
61397;SDS011;47267;48.130;-2.040;2023-06-26T02:32:34;4.18;;;1.30;;
61397;SDS011;47267;48.130;-2.040;2023-06-26T02:35:00;3.95;;;1.10;;
61397;SDS011;47267;48.130;-2.040;2023-06-26T02:37:26;2.95;;;1.00;;
61397;SDS011;47267;48.130;-2.040;2023-06-26T02:39:52;6.32;;;1.10;;
61397;SDS011;47267;48.130;-2.040;2023-06-26T02:42:17;5.25;;;1.52;;
61397;SDS011;47267;48.130;-2.040;2023-06-26T02:44:43;4.53;;;1.13;;
61397;SDS011;47267;48.130;-2.040;2023-06-26T02:47:09;3.47;;;1.20;;
61397;SDS011;47267;48.130;-2.040;2023-06-26T02:49:34;5.10;;;1.10;;
61397;SDS011;47267;48.130;-2.040;2023-06-26T02:52:00;4.15;;;1.15;;
61397;SDS011;47267;48.130;-2.040;2023-06-26T02:54:26;2.50;;;1.20;;
61397;SDS011;47267;48.130;-2.040;2023-06-26T02:56:52;3.97;;;1.00;;
61397;SDS011;47267;48.130;-2.040;2023-06-26T02:59:17;3.50;;;1.10;;
61397;SDS011;47267;48.130;-2.040;2023-06-26T03:01:43;3.65;;;1.05;;
61397;SDS011;47267;48.130;-2.040;2023-06-26T03:04:09;4.10;;;1.17;;
61397;SDS011;47267;48.130;-2.040;2023-06-26T03:06:35;2.42;;;1.13;;
61397;SDS011;47267;48.130;-2.040;2023-06-26T03:09:01;5.10;;;1.30;;
61397;SDS011;47267;48.130;-2.040;2023-06-26T03:11:27;1.73;;;0.90;;
61397;SDS011;47267;48.130;-2.040;2023-06-26T03:13:53;2.67;;;0.90;;
61397;SDS011;47267;48.130;-2.040;2023-06-26T03:16:19;4.13;;;1.27;;
61397;SDS011;47267;48.130;-2.040;2023-06-26T03:18:44;2.83;;;0.95;;
61397;SDS011;47267;48.130;-2.040;2023-06-26T03:21:10;4.75;;;1.30;;
61397;SDS011;47267;48.130;-2.040;2023-06-26T03:23:36;4.32;;;1.10;;
61397;SDS011;47267;48.130;-2.040;2023-06-26T03:26:01;2.42;;;0.85;;
61397;SDS011;47267;48.130;-2.040;2023-06-26T03:28:27;4.50;;;1.00;;
61397;SDS011;47267;48.130;-2.040;2023-06-26T03:30:53;2.58;;;0.73;;
61397;SDS011;47267;48.130;-2.040;2023-06-26T03:33:18;2.60;;;1.10;;
61397;SDS011;47267;48.130;-2.040;2023-06-26T03:35:44;4.07;;;1.20;;
61397;SDS011;47267;48.130;-2.040;2023-06-26T03:38:10;4.05;;;1.20;;
61397;SDS011;47267;48.130;-2.040;2023-06-26T03:40:35;3.13;;;1.00;;
61397;SDS011;47267;48.130;-2.040;2023-06-26T03:43:01;5.80;;;1.20;;
61397;SDS011;47267;48.130;-2.040;2023-06-26T03:45:27;3.50;;;1.20;;
61397;SDS011;47267;48.130;-2.040;2023-06-26T03:47:53;3.03;;;1.00;;
61397;SDS011;47267;48.130;-2.040;2023-06-26T03:50:19;3.72;;;1.10;;
61397;SDS011;47267;48.130;-2.040;2023-06-26T03:52:44;4.03;;;1.02;;
61397;SDS011;47267;48.130;-2.040;2023-06-26T03:55:10;2.00;;;1.00;;
61397;SDS011;47267;48.130;-2.040;2023-06-26T03:57:36;3.25;;;1.10;;
61397;SDS011;47267;48.130;-2.040;2023-06-26T04:00:02;3.50;;;1.10;;
61397;SDS011;47267;48.130;-2.040;2023-06-26T04:02:33;3.72;;;1.10;;
61397;SDS011;47267;48.130;-2.040;2023-06-26T04:05:00;4.80;;;1.25;;
61397;SDS011;47267;48.130;-2.040;2023-06-26T04:07:26;3.25;;;1.15;;
61397;SDS011;47267;48.130;-2.040;2023-06-26T04:09:52;5.45;;;1.30;;
61397;SDS011;47267;48.130;-2.040;2023-06-26T04:12:17;5.43;;;1.40;;
61397;SDS011;47267;48.130;-2.040;2023-06-26T04:14:43;2.80;;;1.15;;
61397;SDS011;47267;48.130;-2.040;2023-06-26T04:17:09;3.85;;;1.00;;
61397;SDS011;47267;48.130;-2.040;2023-06-26T04:19:35;4.40;;;1.15;;
61397;SDS011;47267;48.130;-2.040;2023-06-26T04:22:01;3.70;;;1.30;;
61397;SDS011;47267;48.130;-2.040;2023-06-26T04:24:27;2.38;;;1.23;;
61397;SDS011;47267;48.130;-2.040;2023-06-26T04:26:53;3.78;;;1.25;;
61397;SDS011;47267;48.130;-2.040;2023-06-26T04:29:22;5.60;;;1.20;;
61397;SDS011;47267;48.130;-2.040;2023-06-26T04:31:52;2.95;;;1.10;;
61397;SDS011;47267;48.130;-2.040;2023-06-26T04:34:26;5.05;;;1.17;;
61397;SDS011;47267;48.130;-2.040;2023-06-26T04:36:52;3.90;;;1.40;;
61397;SDS011;47267;48.130;-2.040;2023-06-26T04:39:18;2.53;;;1.25;;
61397;SDS011;47267;48.130;-2.040;2023-06-26T04:41:45;4.55;;;1.30;;
61397;SDS011;47267;48.130;-2.040;2023-06-26T04:44:10;3.22;;;1.23;;
61397;SDS011;47267;48.130;-2.040;2023-06-26T04:46:36;3.05;;;1.35;;
61397;SDS011;47267;48.130;-2.040;2023-06-26T04:49:06;2.97;;;1.13;;
61397;SDS011;47267;48.130;-2.040;2023-06-26T04:51:34;3.72;;;1.40;;
61397;SDS011;47267;48.130;-2.040;2023-06-26T04:54:06;4.10;;;1.25;;
61397;SDS011;47267;48.130;-2.040;2023-06-26T04:56:32;5.50;;;1.40;;
61397;SDS011;47267;48.130;-2.040;2023-06-26T04:58:58;4.82;;;1.38;;
61397;SDS011;47267;48.130;-2.040;2023-06-26T05:01:24;5.38;;;1.30;;
61397;SDS011;47267;48.130;-2.040;2023-06-26T05:03:50;3.83;;;1.75;;
61397;SDS011;47267;48.130;-2.040;2023-06-26T05:06:16;3.55;;;1.35;;
61397;SDS011;47267;48.130;-2.040;2023-06-26T05:08:41;3.70;;;1.40;;
61397;SDS011;47267;48.130;-2.040;2023-06-26T05:11:07;2.97;;;1.20;;
61397;SDS011;47267;48.130;-2.040;2023-06-26T05:13:32;4.03;;;1.30;;
61397;SDS011;47267;48.130;-2.040;2023-06-26T05:15:58;5.13;;;1.45;;
61397;SDS011;47267;48.130;-2.040;2023-06-26T05:18:24;4.10;;;1.50;;
61397;SDS011;47267;48.130;-2.040;2023-06-26T05:20:49;4.00;;;1.40;;
61397;SDS011;47267;48.130;-2.040;2023-06-26T05:23:15;5.50;;;1.52;;
61397;SDS011;47267;48.130;-2.040;2023-06-26T05:25:41;3.25;;;1.30;;
61397;SDS011;47267;48.130;-2.040;2023-06-26T05:28:08;4.15;;;1.40;;
61397;SDS011;47267;48.130;-2.040;2023-06-26T05:30:37;4.50;;;1.73;;
61397;SDS011;47267;48.130;-2.040;2023-06-26T05:33:03;3.90;;;1.45;;
61397;SDS011;47267;48.130;-2.040;2023-06-26T05:35:30;3.15;;;1.40;;
61397;SDS011;47267;48.130;-2.040;2023-06-26T05:37:57;3.28;;;1.40;;
61397;SDS011;47267;48.130;-2.040;2023-06-26T05:40:24;2.80;;;1.23;;
61397;SDS011;47267;48.130;-2.040;2023-06-26T05:42:50;4.45;;;1.40;;
61397;SDS011;47267;48.130;-2.040;2023-06-26T05:45:16;3.70;;;1.27;;
61397;SDS011;47267;48.130;-2.040;2023-06-26T05:47:42;3.90;;;1.40;;
61397;SDS011;47267;48.130;-2.040;2023-06-26T05:50:08;5.88;;;1.85;;
61397;SDS011;47267;48.130;-2.040;2023-06-26T05:52:34;6.65;;;1.67;;
61397;SDS011;47267;48.130;-2.040;2023-06-26T05:55:01;5.40;;;1.80;;
61397;SDS011;47267;48.130;-2.040;2023-06-26T05:57:28;6.03;;;2.10;;
61397;SDS011;47267;48.130;-2.040;2023-06-26T05:59:55;9.20;;;2.03;;
61397;SDS011;47267;48.130;-2.040;2023-06-26T06:02:21;8.55;;;1.80;;
61397;SDS011;47267;48.130;-2.040;2023-06-26T06:04:47;6.13;;;2.00;;
61397;SDS011;47267;48.130;-2.040;2023-06-26T06:07:13;8.07;;;2.38;;
61397;SDS011;47267;48.130;-2.040;2023-06-26T06:09:39;7.05;;;2.17;;
61397;SDS011;47267;48.130;-2.040;2023-06-26T06:12:05;7.20;;;1.70;;
61397;SDS011;47267;48.130;-2.040;2023-06-26T06:14:32;6.60;;;2.10;;
61397;SDS011;47267;48.130;-2.040;2023-06-26T06:16:58;7.85;;;2.67;;
61397;SDS011;47267;48.130;-2.040;2023-06-26T06:19:24;4.63;;;2.05;;
61397;SDS011;47267;48.130;-2.040;2023-06-26T06:21:50;14.13;;;2.85;;
61397;SDS011;47267;48.130;-2.040;2023-06-26T06:24:15;8.35;;;2.47;;
61397;SDS011;47267;48.130;-2.040;2023-06-26T06:26:41;7.72;;;2.30;;
61397;SDS011;47267;48.130;-2.040;2023-06-26T06:29:07;7.35;;;1.92;;
61397;SDS011;47267;48.130;-2.040;2023-06-26T06:31:32;9.20;;;2.20;;
61397;SDS011;47267;48.130;-2.040;2023-06-26T06:33:58;8.52;;;2.30;;
61397;SDS011;47267;48.130;-2.040;2023-06-26T06:36:24;6.95;;;2.15;;
61397;SDS011;47267;48.130;-2.040;2023-06-26T06:38:49;6.95;;;2.13;;
61397;SDS011;47267;48.130;-2.040;2023-06-26T06:41:15;9.95;;;2.55;;
61397;SDS011;47267;48.130;-2.040;2023-06-26T06:43:41;7.47;;;2.50;;
61397;SDS011;47267;48.130;-2.040;2023-06-26T06:46:07;7.57;;;2.20;;
61397;SDS011;47267;48.130;-2.040;2023-06-26T06:48:33;6.57;;;2.40;;
61397;SDS011;47267;48.130;-2.040;2023-06-26T06:50:59;7.43;;;2.20;;
61397;SDS011;47267;48.130;-2.040;2023-06-26T06:53:25;7.95;;;2.20;;
61397;SDS011;47267;48.130;-2.040;2023-06-26T06:55:51;8.90;;;2.25;;
61397;SDS011;47267;48.130;-2.040;2023-06-26T06:58:16;7.78;;;2.30;;
61397;SDS011;47267;48.130;-2.040;2023-06-26T07:00:44;5.63;;;2.22;;
61397;SDS011;47267;48.130;-2.040;2023-06-26T07:03:10;8.07;;;2.00;;
61397;SDS011;47267;48.130;-2.040;2023-06-26T07:05:36;15.18;;;2.63;;
61397;SDS011;47267;48.130;-2.040;2023-06-26T07:08:02;9.57;;;2.35;;
61397;SDS011;47267;48.130;-2.040;2023-06-26T07:10:28;11.40;;;2.40;;
61397;SDS011;47267;48.130;-2.040;2023-06-26T07:12:54;10.10;;;2.25;;
61397;SDS011;47267;48.130;-2.040;2023-06-26T07:15:20;8.90;;;2.15;;
61397;SDS011;47267;48.130;-2.040;2023-06-26T07:17:46;7.32;;;2.10;;
61397;SDS011;47267;48.130;-2.040;2023-06-26T07:20:12;7.90;;;2.10;;
61397;SDS011;47267;48.130;-2.040;2023-06-26T07:22:40;11.02;;;2.75;;
61397;SDS011;47267;48.130;-2.040;2023-06-26T07:25:07;7.22;;;1.80;;
61397;SDS011;47267;48.130;-2.040;2023-06-26T07:27:39;8.00;;;1.77;;
61397;SDS011;47267;48.130;-2.040;2023-06-26T07:30:05;9.45;;;2.60;;
61397;SDS011;47267;48.130;-2.040;2023-06-26T07:32:34;6.20;;;1.50;;
61397;SDS011;47267;48.130;-2.040;2023-06-26T07:35:00;9.98;;;1.90;;
61397;SDS011;47267;48.130;-2.040;2023-06-26T07:37:26;8.88;;;1.80;;
61397;SDS011;47267;48.130;-2.040;2023-06-26T07:39:51;5.32;;;1.60;;
61397;SDS011;47267;48.130;-2.040;2023-06-26T07:42:17;6.60;;;1.60;;
61397;SDS011;47267;48.130;-2.040;2023-06-26T07:44:43;7.20;;;1.60;;
61397;SDS011;47267;48.130;-2.040;2023-06-26T07:47:09;6.63;;;1.63;;
61397;SDS011;47267;48.130;-2.040;2023-06-26T07:49:35;10.65;;;2.03;;
61397;SDS011;47267;48.130;-2.040;2023-06-26T07:52:02;3.72;;;1.38;;
61397;SDS011;47267;48.130;-2.040;2023-06-26T07:54:28;8.85;;;1.80;;
61397;SDS011;47267;48.130;-2.040;2023-06-26T07:56:59;6.45;;;1.70;;
61397;SDS011;47267;48.130;-2.040;2023-06-26T07:59:26;8.45;;;1.70;;
61397;SDS011;47267;48.130;-2.040;2023-06-26T08:01:53;8.25;;;1.90;;
61397;SDS011;47267;48.130;-2.040;2023-06-26T08:04:20;6.07;;;1.60;;
61397;SDS011;47267;48.130;-2.040;2023-06-26T08:06:48;9.38;;;1.73;;
61397;SDS011;47267;48.130;-2.040;2023-06-26T08:09:15;7.75;;;1.80;;
61397;SDS011;47267;48.130;-2.040;2023-06-26T08:11:42;8.02;;;1.80;;
61397;SDS011;47267;48.130;-2.040;2023-06-26T08:14:07;8.93;;;1.92;;
61397;SDS011;47267;48.130;-2.040;2023-06-26T08:16:33;6.97;;;1.70;;
61397;SDS011;47267;48.130;-2.040;2023-06-26T08:18:59;10.23;;;2.03;;
61397;SDS011;47267;48.130;-2.040;2023-06-26T08:21:25;8.18;;;1.98;;
61397;SDS011;47267;48.130;-2.040;2023-06-26T08:23:51;8.85;;;1.92;;
61397;SDS011;47267;48.130;-2.040;2023-06-26T08:26:17;6.82;;;1.80;;
61397;SDS011;47267;48.130;-2.040;2023-06-26T08:28:43;7.45;;;1.90;;
61397;SDS011;47267;48.130;-2.040;2023-06-26T08:31:08;6.40;;;1.60;;
61397;SDS011;47267;48.130;-2.040;2023-06-26T08:33:34;9.07;;;1.83;;
61397;SDS011;47267;48.130;-2.040;2023-06-26T08:35:59;7.70;;;1.70;;
61397;SDS011;47267;48.130;-2.040;2023-06-26T08:38:25;6.95;;;1.60;;
61397;SDS011;47267;48.130;-2.040;2023-06-26T08:40:51;6.57;;;1.60;;
61397;SDS011;47267;48.130;-2.040;2023-06-26T08:43:17;6.10;;;1.90;;
61397;SDS011;47267;48.130;-2.040;2023-06-26T08:45:42;6.70;;;1.50;;
61397;SDS011;47267;48.130;-2.040;2023-06-26T08:48:08;8.93;;;1.83;;
61397;SDS011;47267;48.130;-2.040;2023-06-26T08:50:35;9.85;;;1.90;;
61397;SDS011;47267;48.130;-2.040;2023-06-26T08:53:27;11.65;;;2.33;;
61397;SDS011;47267;48.130;-2.040;2023-06-26T08:55:52;7.53;;;1.65;;
61397;SDS011;47267;48.130;-2.040;2023-06-26T08:58:18;11.63;;;2.10;;
61397;SDS011;47267;48.130;-2.040;2023-06-26T09:00:44;7.43;;;1.88;;
61397;SDS011;47267;48.130;-2.040;2023-06-26T09:03:10;10.88;;;2.33;;
61397;SDS011;47267;48.130;-2.040;2023-06-26T09:05:38;7.95;;;1.65;;
61397;SDS011;47267;48.130;-2.040;2023-06-26T09:08:03;5.55;;;1.75;;
61397;SDS011;47267;48.130;-2.040;2023-06-26T09:10:30;7.05;;;1.73;;
61397;SDS011;47267;48.130;-2.040;2023-06-26T09:12:55;11.48;;;2.33;;
61397;SDS011;47267;48.130;-2.040;2023-06-26T09:15:26;9.75;;;1.90;;
61397;SDS011;47267;48.130;-2.040;2023-06-26T09:17:55;6.90;;;1.38;;
61397;SDS011;47267;48.130;-2.040;2023-06-26T09:20:27;6.55;;;1.40;;
61397;SDS011;47267;48.130;-2.040;2023-06-26T09:22:54;6.30;;;1.50;;
61397;SDS011;47267;48.130;-2.040;2023-06-26T09:25:20;6.30;;;1.88;;
61397;SDS011;47267;48.130;-2.040;2023-06-26T09:27:48;6.65;;;1.77;;
61397;SDS011;47267;48.130;-2.040;2023-06-26T09:30:16;5.75;;;1.60;;
61397;SDS011;47267;48.130;-2.040;2023-06-26T09:32:43;9.25;;;1.58;;
61397;SDS011;47267;48.130;-2.040;2023-06-26T09:35:09;5.93;;;1.40;;
61397;SDS011;47267;48.130;-2.040;2023-06-26T09:37:35;5.20;;;1.30;;
61397;SDS011;47267;48.130;-2.040;2023-06-26T09:40:01;8.23;;;1.67;;
61397;SDS011;47267;48.130;-2.040;2023-06-26T09:42:28;6.22;;;1.58;;
61397;SDS011;47267;48.130;-2.040;2023-06-26T09:44:54;4.50;;;1.23;;
61397;SDS011;47267;48.130;-2.040;2023-06-26T09:47:20;6.15;;;1.88;;
61397;SDS011;47267;48.130;-2.040;2023-06-26T09:49:46;5.22;;;1.30;;
61397;SDS011;47267;48.130;-2.040;2023-06-26T09:52:16;8.48;;;1.52;;
61397;SDS011;47267;48.130;-2.040;2023-06-26T09:54:43;5.57;;;1.30;;
61397;SDS011;47267;48.130;-2.040;2023-06-26T09:57:13;7.88;;;1.60;;
61397;SDS011;47267;48.130;-2.040;2023-06-26T09:59:44;8.18;;;2.03;;
61397;SDS011;47267;48.130;-2.040;2023-06-26T10:02:14;6.95;;;1.60;;
61397;SDS011;47267;48.130;-2.040;2023-06-26T10:04:39;6.22;;;1.80;;
61397;SDS011;47267;48.130;-2.040;2023-06-26T10:07:06;7.07;;;1.40;;
61397;SDS011;47267;48.130;-2.040;2023-06-26T10:09:35;6.47;;;1.43;;
61397;SDS011;47267;48.130;-2.040;2023-06-26T10:12:19;6.57;;;1.90;;
61397;SDS011;47267;48.130;-2.040;2023-06-26T10:14:50;6.97;;;1.85;;
61397;SDS011;47267;48.130;-2.040;2023-06-26T10:17:18;7.82;;;1.73;;
61397;SDS011;47267;48.130;-2.040;2023-06-26T10:19:48;6.22;;;1.38;;
61397;SDS011;47267;48.130;-2.040;2023-06-26T10:22:17;7.43;;;1.52;;
61397;SDS011;47267;48.130;-2.040;2023-06-26T10:24:45;5.47;;;1.38;;
61397;SDS011;47267;48.130;-2.040;2023-06-26T10:27:21;7.35;;;1.65;;
61397;SDS011;47267;48.130;-2.040;2023-06-26T10:29:55;6.40;;;1.80;;
61397;SDS011;47267;48.130;-2.040;2023-06-26T10:32:25;6.20;;;1.60;;
61397;SDS011;47267;48.130;-2.040;2023-06-26T10:34:52;5.72;;;1.58;;
61397;SDS011;47267;48.130;-2.040;2023-06-26T10:37:18;4.13;;;1.30;;
61397;SDS011;47267;48.130;-2.040;2023-06-26T10:39:51;7.43;;;1.55;;
61397;SDS011;47267;48.130;-2.040;2023-06-26T10:42:20;4.45;;;1.50;;
61397;SDS011;47267;48.130;-2.040;2023-06-26T10:45:16;4.75;;;1.30;;
61397;SDS011;47267;48.130;-2.040;2023-06-26T10:47:47;5.28;;;1.60;;
61397;SDS011;47267;48.130;-2.040;2023-06-26T10:50:24;5.28;;;1.50;;
61397;SDS011;47267;48.130;-2.040;2023-06-26T11:03:48;8.15;;;1.67;;
61397;SDS011;47267;48.130;-2.040;2023-06-26T11:06:23;3.53;;;1.30;;
61397;SDS011;47267;48.130;-2.040;2023-06-26T11:08:53;8.15;;;1.60;;
61397;SDS011;47267;48.130;-2.040;2023-06-26T11:11:54;3.72;;;1.38;;
61397;SDS011;47267;48.130;-2.040;2023-06-26T11:14:20;3.47;;;1.38;;
61397;SDS011;47267;48.130;-2.040;2023-06-26T11:16:50;4.07;;;1.30;;
61397;SDS011;47267;48.130;-2.040;2023-06-26T11:19:16;6.85;;;1.50;;
61397;SDS011;47267;48.130;-2.040;2023-06-26T11:21:43;3.53;;;1.20;;
61397;SDS011;47267;48.130;-2.040;2023-06-26T11:24:10;5.75;;;1.48;;
61397;SDS011;47267;48.130;-2.040;2023-06-26T11:26:40;8.77;;;1.88;;
61397;SDS011;47267;48.130;-2.040;2023-06-26T11:29:07;8.88;;;1.55;;
61397;SDS011;47267;48.130;-2.040;2023-06-26T11:31:35;4.25;;;1.40;;
61397;SDS011;47267;48.130;-2.040;2023-06-26T11:34:06;4.45;;;1.30;;
61397;SDS011;47267;48.130;-2.040;2023-06-26T11:36:36;5.70;;;1.10;;
61397;SDS011;47267;48.130;-2.040;2023-06-26T11:39:04;3.35;;;1.17;;
61397;SDS011;47267;48.130;-2.040;2023-06-26T11:41:37;4.85;;;1.73;;
61397;SDS011;47267;48.130;-2.040;2023-06-26T11:46:31;6.03;;;1.45;;
61397;SDS011;47267;48.130;-2.040;2023-06-26T11:48:57;8.93;;;1.42;;
61397;SDS011;47267;48.130;-2.040;2023-06-26T11:51:23;2.95;;;1.27;;
61397;SDS011;47267;48.130;-2.040;2023-06-26T11:53:51;7.03;;;1.77;;
61397;SDS011;47267;48.130;-2.040;2023-06-26T11:56:18;6.13;;;1.40;;
61397;SDS011;47267;48.130;-2.040;2023-06-26T11:59:00;4.85;;;1.50;;
61397;SDS011;47267;48.130;-2.040;2023-06-26T12:01:33;3.78;;;1.02;;
61397;SDS011;47267;48.130;-2.040;2023-06-26T12:04:01;5.68;;;1.40;;
61397;SDS011;47267;48.130;-2.040;2023-06-26T12:06:29;6.72;;;1.58;;
61397;SDS011;47267;48.130;-2.040;2023-06-26T12:08:56;6.28;;;1.42;;
61397;SDS011;47267;48.130;-2.040;2023-06-26T12:11:24;4.55;;;1.35;;
61397;SDS011;47267;48.130;-2.040;2023-06-26T12:13:50;2.75;;;1.00;;
61397;SDS011;47267;48.130;-2.040;2023-06-26T12:16:16;3.55;;;1.35;;
61397;SDS011;47267;48.130;-2.040;2023-06-26T12:18:43;5.55;;;1.58;;
61397;SDS011;47267;48.130;-2.040;2023-06-26T12:21:09;5.20;;;1.10;;
61397;SDS011;47267;48.130;-2.040;2023-06-26T12:24:02;4.15;;;1.25;;
61397;SDS011;47267;48.130;-2.040;2023-06-26T12:26:29;5.40;;;1.20;;
61397;SDS011;47267;48.130;-2.040;2023-06-26T12:29:02;3.80;;;1.30;;
61397;SDS011;47267;48.130;-2.040;2023-06-26T12:31:28;6.13;;;1.23;;
61397;SDS011;47267;48.130;-2.040;2023-06-26T12:33:54;7.15;;;1.67;;
61397;SDS011;47267;48.130;-2.040;2023-06-26T12:36:20;4.32;;;1.58;;
61397;SDS011;47267;48.130;-2.040;2023-06-26T12:38:46;4.80;;;1.40;;
61397;SDS011;47267;48.130;-2.040;2023-06-26T12:41:13;6.32;;;1.67;;
61397;SDS011;47267;48.130;-2.040;2023-06-26T12:43:43;5.07;;;1.33;;
61397;SDS011;47267;48.130;-2.040;2023-06-26T12:46:08;5.22;;;1.50;;
61397;SDS011;47267;48.130;-2.040;2023-06-26T12:48:41;5.95;;;1.38;;
61397;SDS011;47267;48.130;-2.040;2023-06-26T12:51:14;5.90;;;1.30;;
61397;SDS011;47267;48.130;-2.040;2023-06-26T12:53:41;6.63;;;1.30;;
61397;SDS011;47267;48.130;-2.040;2023-06-26T12:56:08;3.17;;;1.20;;
61397;SDS011;47267;48.130;-2.040;2023-06-26T12:58:35;4.90;;;1.20;;
61397;SDS011;47267;48.130;-2.040;2023-06-26T13:01:04;5.05;;;1.58;;
61397;SDS011;47267;48.130;-2.040;2023-06-26T13:03:40;4.82;;;1.70;;
61397;SDS011;47267;48.130;-2.040;2023-06-26T13:06:06;3.67;;;1.33;;
61397;SDS011;47267;48.130;-2.040;2023-06-26T13:08:33;10.95;;;1.80;;
61397;SDS011;47267;48.130;-2.040;2023-06-26T13:10:59;8.32;;;1.60;;
61397;SDS011;47267;48.130;-2.040;2023-06-26T13:13:24;4.53;;;1.23;;
61397;SDS011;47267;48.130;-2.040;2023-06-26T13:15:50;3.20;;;1.02;;
61397;SDS011;47267;48.130;-2.040;2023-06-26T13:18:16;3.72;;;1.25;;
61397;SDS011;47267;48.130;-2.040;2023-06-26T13:20:42;4.35;;;1.20;;
61397;SDS011;47267;48.130;-2.040;2023-06-26T13:23:08;4.80;;;1.38;;
61397;SDS011;47267;48.130;-2.040;2023-06-26T13:25:33;6.15;;;1.40;;
61397;SDS011;47267;48.130;-2.040;2023-06-26T13:27:59;7.60;;;1.80;;
61397;SDS011;47267;48.130;-2.040;2023-06-26T13:30:25;4.65;;;1.60;;
61397;SDS011;47267;48.130;-2.040;2023-06-26T13:32:50;5.95;;;1.30;;
61397;SDS011;47267;48.130;-2.040;2023-06-26T13:35:16;4.47;;;1.20;;
61397;SDS011;47267;48.130;-2.040;2023-06-26T13:37:42;3.17;;;1.10;;
61397;SDS011;47267;48.130;-2.040;2023-06-26T13:40:08;5.45;;;1.38;;
61397;SDS011;47267;48.130;-2.040;2023-06-26T13:42:34;7.53;;;1.65;;
61397;SDS011;47267;48.130;-2.040;2023-06-26T13:45:01;7.18;;;1.30;;
61397;SDS011;47267;48.130;-2.040;2023-06-26T13:47:28;5.05;;;1.60;;
61397;SDS011;47267;48.130;-2.040;2023-06-26T13:49:54;4.15;;;1.40;;
61397;SDS011;47267;48.130;-2.040;2023-06-26T13:52:20;6.53;;;1.40;;
61397;SDS011;47267;48.130;-2.040;2023-06-26T13:54:46;10.82;;;1.75;;
61397;SDS011;47267;48.130;-2.040;2023-06-26T13:57:11;6.60;;;2.15;;
61397;SDS011;47267;48.130;-2.040;2023-06-26T13:59:38;4.70;;;1.50;;
61397;SDS011;47267;48.130;-2.040;2023-06-26T14:02:07;5.55;;;1.70;;
61397;SDS011;47267;48.130;-2.040;2023-06-26T14:04:33;6.28;;;2.08;;
61397;SDS011;47267;48.130;-2.040;2023-06-26T14:06:59;5.60;;;1.40;;
61397;SDS011;47267;48.130;-2.040;2023-06-26T14:09:24;5.57;;;1.85;;
61397;SDS011;47267;48.130;-2.040;2023-06-26T14:11:50;7.82;;;1.48;;
61397;SDS011;47267;48.130;-2.040;2023-06-26T14:14:16;6.03;;;1.48;;
61397;SDS011;47267;48.130;-2.040;2023-06-26T14:16:41;5.72;;;1.48;;
61397;SDS011;47267;48.130;-2.040;2023-06-26T14:19:07;4.72;;;1.42;;
61397;SDS011;47267;48.130;-2.040;2023-06-26T14:21:38;4.47;;;1.40;;
61397;SDS011;47267;48.130;-2.040;2023-06-26T14:24:03;5.93;;;1.40;;
61397;SDS011;47267;48.130;-2.040;2023-06-26T14:26:29;7.78;;;1.63;;
61397;SDS011;47267;48.130;-2.040;2023-06-26T14:28:55;5.82;;;1.42;;
61397;SDS011;47267;48.130;-2.040;2023-06-26T14:31:21;4.00;;;1.23;;
61397;SDS011;47267;48.130;-2.040;2023-06-26T14:33:47;4.03;;;1.40;;
61397;SDS011;47267;48.130;-2.040;2023-06-26T14:36:12;5.75;;;1.95;;
61397;SDS011;47267;48.130;-2.040;2023-06-26T14:38:38;3.25;;;1.50;;
61397;SDS011;47267;48.130;-2.040;2023-06-26T14:41:03;7.10;;;1.60;;
61397;SDS011;47267;48.130;-2.040;2023-06-26T14:43:29;4.82;;;1.65;;
61397;SDS011;47267;48.130;-2.040;2023-06-26T14:45:55;5.88;;;1.77;;
61397;SDS011;47267;48.130;-2.040;2023-06-26T14:48:20;5.60;;;1.58;;
61397;SDS011;47267;48.130;-2.040;2023-06-26T14:50:46;3.85;;;1.30;;